sensor_id;sensor_type;location;lat;lon;timestamp;pressure;altitude;pressure_sealevel;temperature;humidity
66398;BME280;54877;51.504;3.894;2023-04-09T00:02:08;102610.81;;;11.78;62.52
66398;BME280;54877;51.504;3.894;2023-04-09T00:04:34;102608.28;;;11.73;62.79
66398;BME280;54877;51.504;3.894;2023-04-09T00:06:59;102617.22;;;11.69;63.06
66398;BME280;54877;51.504;3.894;2023-04-09T00:09:25;102614.63;;;11.66;63.31
66398;BME280;54877;51.504;3.894;2023-04-09T00:11:50;102620.88;;;11.64;63.48
66398;BME280;54877;51.504;3.894;2023-04-09T00:14:15;102614.81;;;11.59;63.56
66398;BME280;54877;51.504;3.894;2023-04-09T00:16:41;102611.22;;;11.61;63.27
66398;BME280;54877;51.504;3.894;2023-04-09T00:19:06;102614.75;;;11.62;63.58
66398;BME280;54877;51.504;3.894;2023-04-09T00:21:31;102599.66;;;11.64;63.78
66398;BME280;54877;51.504;3.894;2023-04-09T00:23:57;102604.00;;;11.66;63.50
66398;BME280;54877;51.504;3.894;2023-04-09T00:26:22;102603.97;;;11.69;63.70
66398;BME280;54877;51.504;3.894;2023-04-09T00:28:47;102603.97;;;11.69;63.78
66398;BME280;54877;51.504;3.894;2023-04-09T00:31:13;102591.56;;;11.68;63.72
66398;BME280;54877;51.504;3.894;2023-04-09T00:33:38;102595.16;;;11.67;63.77
66398;BME280;54877;51.504;3.894;2023-04-09T00:36:03;102591.56;;;11.68;63.68
66398;BME280;54877;51.504;3.894;2023-04-09T00:38:29;102585.31;;;11.71;63.71
66398;BME280;54877;51.504;3.894;2023-04-09T00:40:54;102580.03;;;11.71;64.04
66398;BME280;54877;51.504;3.894;2023-04-09T00:43:20;102582.72;;;11.69;63.86
66398;BME280;54877;51.504;3.894;2023-04-09T00:45:45;102577.44;;;11.69;63.85
66398;BME280;54877;51.504;3.894;2023-04-09T00:48:12;102581.91;;;11.66;64.13
66398;BME280;54877;51.504;3.894;2023-04-09T00:50:38;102584.69;;;11.61;64.34
66398;BME280;54877;51.504;3.894;2023-04-09T00:53:04;102586.47;;;11.61;64.39
66398;BME280;54877;51.504;3.894;2023-04-09T00:55:30;102575.06;;;11.57;64.67
66398;BME280;54877;51.504;3.894;2023-04-09T00:57:55;102576.94;;;11.54;64.76
66398;BME280;54877;51.504;3.894;2023-04-09T01:00:21;102577.78;;;11.54;64.77
66398;BME280;54877;51.504;3.894;2023-04-09T01:02:46;102574.31;;;11.52;64.75
66398;BME280;54877;51.504;3.894;2023-04-09T01:05:13;102569.00;;;11.52;64.83
66398;BME280;54877;51.504;3.894;2023-04-09T01:15:34;102577.69;;;11.57;64.46
66398;BME280;54877;51.504;3.894;2023-04-09T01:20:57;102571.50;;;11.58;63.88
66398;BME280;54877;51.504;3.894;2023-04-09T01:28:59;102581.13;;;11.62;64.61
66398;BME280;54877;51.504;3.894;2023-04-09T01:31:30;102578.50;;;11.61;64.55
66398;BME280;54877;51.504;3.894;2023-04-09T01:33:58;102583.88;;;11.59;64.33
66398;BME280;54877;51.504;3.894;2023-04-09T01:36:25;102576.81;;;11.58;64.21
66398;BME280;54877;51.504;3.894;2023-04-09T01:38:51;102576.88;;;11.55;64.19
66398;BME280;54877;51.504;3.894;2023-04-09T01:41:19;102579.59;;;11.52;64.36
66398;BME280;54877;51.504;3.894;2023-04-09T01:43:47;102590.28;;;11.49;64.46
66398;BME280;54877;51.504;3.894;2023-04-09T01:46:14;102571.81;;;11.46;64.16
66398;BME280;54877;51.504;3.894;2023-04-09T01:48:41;102573.63;;;11.46;63.95
66398;BME280;54877;51.504;3.894;2023-04-09T01:51:08;102584.31;;;11.41;63.83
66398;BME280;54877;51.504;3.894;2023-04-09T01:53:33;102570.28;;;11.38;63.85
66398;BME280;54877;51.504;3.894;2023-04-09T01:55:59;102566.78;;;11.36;63.67
66398;BME280;54877;51.504;3.894;2023-04-09T01:58:25;102574.81;;;11.33;63.89
66398;BME280;54877;51.504;3.894;2023-04-09T02:00:53;102571.31;;;11.32;63.84
66398;BME280;54877;51.504;3.894;2023-04-09T02:03:24;102579.34;;;11.29;64.30
66398;BME280;54877;51.504;3.894;2023-04-09T02:05:56;102580.31;;;11.25;64.42
66398;BME280;54877;51.504;3.894;2023-04-09T02:08:29;102576.91;;;11.20;64.53
66398;BME280;54877;51.504;3.894;2023-04-09T02:10:57;102578.75;;;11.18;64.52
66398;BME280;54877;51.504;3.894;2023-04-09T02:13:24;102571.75;;;11.15;64.71
66398;BME280;54877;51.504;3.894;2023-04-09T02:15:51;102576.16;;;11.15;64.48
66398;BME280;54877;51.504;3.894;2023-04-09T02:18:24;102567.34;;;11.14;64.15
66398;BME280;54877;51.504;3.894;2023-04-09T02:20:51;102570.00;;;11.13;63.93
66398;BME280;54877;51.504;3.894;2023-04-09T02:23:17;102566.53;;;11.11;63.72
66398;BME280;54877;51.504;3.894;2023-04-09T02:25:43;102563.94;;;11.09;63.71
66398;BME280;54877;51.504;3.894;2023-04-09T02:28:08;102567.47;;;11.10;64.04
66398;BME280;54877;51.504;3.894;2023-04-09T02:30:34;102567.47;;;11.10;64.13
66398;BME280;54877;51.504;3.894;2023-04-09T02:32:59;102564.81;;;11.10;64.44
66398;BME280;54877;51.504;3.894;2023-04-09T02:35:24;102568.34;;;11.09;64.59
66398;BME280;54877;51.504;3.894;2023-04-09T02:37:50;102561.38;;;11.05;64.77
66398;BME280;54877;51.504;3.894;2023-04-09T02:40:15;102554.41;;;11.01;65.03
66398;BME280;54877;51.504;3.894;2023-04-09T02:42:41;102557.13;;;10.98;64.79
66398;BME280;54877;51.504;3.894;2023-04-09T02:45:06;102558.09;;;10.94;65.09
66398;BME280;54877;51.504;3.894;2023-04-09T02:47:32;102555.63;;;10.88;65.59
66398;BME280;54877;51.504;3.894;2023-04-09T02:49:57;102553.03;;;10.85;65.95
66398;BME280;54877;51.504;3.894;2023-04-09T02:52:22;102542.47;;;10.83;65.80
66398;BME280;54877;51.504;3.894;2023-04-09T02:54:49;102540.84;;;10.78;66.24
66398;BME280;54877;51.504;3.894;2023-04-09T02:57:16;102541.78;;;10.75;66.33
66398;BME280;54877;51.504;3.894;2023-04-09T02:59:41;102535.59;;;10.76;66.36
66398;BME280;54877;51.504;3.894;2023-04-09T03:02:07;102537.28;;;10.79;66.24
66398;BME280;54877;51.504;3.894;2023-04-09T03:04:32;102533.75;;;10.80;65.99
66398;BME280;54877;51.504;3.894;2023-04-09T03:06:57;102537.22;;;10.82;65.87
66398;BME280;54877;51.504;3.894;2023-04-09T03:09:23;102527.50;;;10.82;66.28
66398;BME280;54877;51.504;3.894;2023-04-09T03:11:48;102531.91;;;10.82;66.22
66398;BME280;54877;51.504;3.894;2023-04-09T03:14:13;102532.81;;;10.81;66.18
66398;BME280;54877;51.504;3.894;2023-04-09T03:16:39;102528.34;;;10.83;65.86
66398;BME280;54877;51.504;3.894;2023-04-09T03:19:04;102534.59;;;10.80;66.17
66398;BME280;54877;51.504;3.894;2023-04-09T03:21:30;102535.53;;;10.78;66.14
66398;BME280;54877;51.504;3.894;2023-04-09T03:23:56;102526.75;;;10.76;66.36
66398;BME280;54877;51.504;3.894;2023-04-09T03:26:21;102535.59;;;10.75;66.28
66398;BME280;54877;51.504;3.894;2023-04-09T03:28:46;102528.50;;;10.77;66.02
66398;BME280;54877;51.504;3.894;2023-04-09T03:31:12;102529.47;;;10.74;66.00
66398;BME280;54877;51.504;3.894;2023-04-09T03:33:38;102525.88;;;10.75;65.95
66398;BME280;54877;51.504;3.894;2023-04-09T03:36:03;102523.28;;;10.74;66.12
66398;BME280;54877;51.504;3.894;2023-04-09T03:38:29;102520.78;;;10.68;66.50
66398;BME280;54877;51.504;3.894;2023-04-09T03:40:54;102518.19;;;10.65;66.24
66398;BME280;54877;51.504;3.894;2023-04-09T03:43:20;102513.78;;;10.63;66.69
66398;BME280;54877;51.504;3.894;2023-04-09T03:45:46;102510.19;;;10.66;66.35
66398;BME280;54877;51.504;3.894;2023-04-09T03:48:11;102509.28;;;10.69;66.32
66398;BME280;54877;51.504;3.894;2023-04-09T03:50:37;102509.28;;;10.69;66.42
66398;BME280;54877;51.504;3.894;2023-04-09T03:53:03;102511.81;;;10.72;66.47
66398;BME280;54877;51.504;3.894;2023-04-09T03:55:29;102515.34;;;10.74;66.63
66398;BME280;54877;51.504;3.894;2023-04-09T03:57:54;102508.28;;;10.73;66.34
66398;BME280;54877;51.504;3.894;2023-04-09T04:00:19;102508.28;;;10.73;66.47
66398;BME280;54877;51.504;3.894;2023-04-09T04:02:46;102510.13;;;10.69;66.65
66398;BME280;54877;51.504;3.894;2023-04-09T04:05:11;102509.41;;;10.63;66.87
66398;BME280;54877;51.504;3.894;2023-04-09T04:07:37;102510.38;;;10.60;66.79
66398;BME280;54877;51.504;3.894;2023-04-09T04:10:06;102506.84;;;10.59;66.91
66398;BME280;54877;51.504;3.894;2023-04-09T04:12:31;102504.19;;;10.59;66.89
66398;BME280;54877;51.504;3.894;2023-04-09T04:14:57;102510.28;;;10.63;66.92
66398;BME280;54877;51.504;3.894;2023-04-09T04:17:22;102510.19;;;10.66;66.60
66398;BME280;54877;51.504;3.894;2023-04-09T04:19:47;102505.78;;;10.67;66.52
66398;BME280;54877;51.504;3.894;2023-04-09T04:22:13;102513.78;;;10.65;66.59
66398;BME280;54877;51.504;3.894;2023-04-09T04:24:38;102504.00;;;10.67;66.50
66398;BME280;54877;51.504;3.894;2023-04-09T04:27:03;102504.84;;;10.69;66.64
66398;BME280;54877;51.504;3.894;2023-04-09T04:29:29;102507.47;;;10.71;66.33
66398;BME280;54877;51.504;3.894;2023-04-09T04:31:54;102500.38;;;10.71;66.67
66398;BME280;54877;51.504;3.894;2023-04-09T04:34:20;102512.72;;;10.72;66.25
66398;BME280;54877;51.504;3.894;2023-04-09T04:36:45;102508.28;;;10.74;66.18
66398;BME280;54877;51.504;3.894;2023-04-09T04:39:10;102504.69;;;10.75;66.17
66398;BME280;54877;51.504;3.894;2023-04-09T04:41:36;102509.03;;;10.78;66.05
66398;BME280;54877;51.504;3.894;2023-04-09T04:44:01;102509.03;;;10.79;65.64
66398;BME280;54877;51.504;3.894;2023-04-09T04:46:26;102508.16;;;10.79;66.04
66398;BME280;54877;51.504;3.894;2023-04-09T04:48:52;102498.44;;;10.78;65.83
66398;BME280;54877;51.504;3.894;2023-04-09T04:51:17;102503.72;;;10.79;65.58
66398;BME280;54877;51.504;3.894;2023-04-09T04:53:42;102498.44;;;10.78;65.37
66398;BME280;54877;51.504;3.894;2023-04-09T04:56:11;102505.50;;;10.79;65.26
66398;BME280;54877;51.504;3.894;2023-04-09T04:58:38;102507.31;;;10.77;65.19
66398;BME280;54877;51.504;3.894;2023-04-09T05:01:03;102503.75;;;10.78;64.97
66398;BME280;54877;51.504;3.894;2023-04-09T05:03:29;102509.03;;;10.78;64.98
66398;BME280;54877;51.504;3.894;2023-04-09T05:05:54;102512.53;;;10.80;65.12
66398;BME280;54877;51.504;3.894;2023-04-09T05:08:20;102503.72;;;10.79;65.07
66398;BME280;54877;51.504;3.894;2023-04-09T05:10:45;102511.63;;;10.81;65.33
66398;BME280;54877;51.504;3.894;2023-04-09T05:13:10;102511.63;;;10.81;65.64
66398;BME280;54877;51.504;3.894;2023-04-09T05:15:37;102514.25;;;10.82;65.58
66398;BME280;54877;51.504;3.894;2023-04-09T05:18:03;102512.38;;;10.86;65.59
66398;BME280;54877;51.504;3.894;2023-04-09T05:20:29;102518.47;;;10.89;65.52
66398;BME280;54877;51.504;3.894;2023-04-09T05:22:54;102518.34;;;10.94;65.44
66398;BME280;54877;51.504;3.894;2023-04-09T05:25:20;102515.63;;;10.97;65.51
66398;BME280;54877;51.504;3.894;2023-04-09T05:27:45;102523.50;;;11.01;65.53
66398;BME280;54877;51.504;3.894;2023-04-09T05:30:10;102518.97;;;11.05;66.04
66398;BME280;54877;51.504;3.894;2023-04-09T05:32:36;102520.63;;;11.09;65.81
66398;BME280;54877;51.504;3.894;2023-04-09T05:35:01;102509.97;;;11.12;65.73
66398;BME280;54877;51.504;3.894;2023-04-09T05:37:27;102523.00;;;11.19;65.68
66398;BME280;54877;51.504;3.894;2023-04-09T05:39:52;102512.28;;;11.24;65.66
66398;BME280;54877;51.504;3.894;2023-04-09T05:42:17;102520.97;;;11.31;65.74
66398;BME280;54877;51.504;3.894;2023-04-09T05:44:43;102520.88;;;11.34;65.87
66398;BME280;54877;51.504;3.894;2023-04-09T05:47:08;102516.38;;;11.37;65.78
66398;BME280;54877;51.504;3.894;2023-04-09T05:49:33;102519.78;;;11.42;65.75
66398;BME280;54877;51.504;3.894;2023-04-09T05:51:59;102519.69;;;11.45;65.57
66398;BME280;54877;51.504;3.894;2023-04-09T05:54:24;102526.63;;;11.49;65.42
66398;BME280;54877;51.504;3.894;2023-04-09T05:56:50;102523.00;;;11.53;65.53
66398;BME280;54877;51.504;3.894;2023-04-09T05:59:16;102524.63;;;11.59;65.31
66398;BME280;54877;51.504;3.894;2023-04-09T06:01:42;102527.97;;;11.65;65.11
66398;BME280;54877;51.504;3.894;2023-04-09T06:04:07;102531.38;;;11.72;65.16
66398;BME280;54877;51.504;3.894;2023-04-09T06:06:33;102534.75;;;11.77;64.96
66398;BME280;54877;51.504;3.894;2023-04-09T06:08:58;102534.56;;;11.85;64.65
66398;BME280;54877;51.504;3.894;2023-04-09T06:11:23;102536.19;;;11.89;64.63
66398;BME280;54877;51.504;3.894;2023-04-09T06:13:50;102541.44;;;11.92;64.75
66398;BME280;54877;51.504;3.894;2023-04-09T06:16:15;102535.06;;;11.97;64.60
66398;BME280;54877;51.504;3.894;2023-04-09T06:18:40;102538.47;;;12.02;64.53
66398;BME280;54877;51.504;3.894;2023-04-09T06:21:06;102540.97;;;12.07;64.46
66398;BME280;54877;51.504;3.894;2023-04-09T06:23:33;102541.75;;;12.10;64.08
66398;BME280;54877;51.504;3.894;2023-04-09T06:26:00;102541.75;;;12.12;64.01
66398;BME280;54877;51.504;3.894;2023-04-09T06:28:29;102542.56;;;12.14;64.05
66398;BME280;54877;51.504;3.894;2023-04-09T06:30:55;102540.63;;;12.19;64.18
66398;BME280;54877;51.504;3.894;2023-04-09T06:33:21;102538.78;;;12.21;63.55
66398;BME280;54877;51.504;3.894;2023-04-09T06:35:46;102535.09;;;12.26;63.51
66398;BME280;54877;51.504;3.894;2023-04-09T06:38:12;102530.63;;;12.28;63.29
66398;BME280;54877;51.504;3.894;2023-04-09T06:40:38;102525.22;;;12.31;63.56
66398;BME280;54877;51.504;3.894;2023-04-09T06:43:06;102521.53;;;12.35;63.03
66398;BME280;54877;51.504;3.894;2023-04-09T06:45:32;102526.69;;;12.40;62.99
66398;BME280;54877;51.504;3.894;2023-04-09T06:47:58;102527.47;;;12.45;63.00
66398;BME280;54877;51.504;3.894;2023-04-09T06:50:24;102530.03;;;12.48;62.80
66398;BME280;54877;51.504;3.894;2023-04-09T06:52:52;102526.34;;;12.52;62.82
66398;BME280;54877;51.504;3.894;2023-04-09T06:55:18;102528.97;;;12.54;62.84
66398;BME280;54877;51.504;3.894;2023-04-09T06:57:43;102528.09;;;12.53;62.59
66398;BME280;54877;51.504;3.894;2023-04-09T07:00:09;102528.00;;;12.56;62.85
66398;BME280;54877;51.504;3.894;2023-04-09T07:02:35;102529.59;;;12.62;62.72
66398;BME280;54877;51.504;3.894;2023-04-09T07:05:01;102527.69;;;12.65;62.61
66398;BME280;54877;51.504;3.894;2023-04-09T07:07:27;102528.53;;;12.67;62.33
66398;BME280;54877;51.504;3.894;2023-04-09T07:09:53;102520.44;;;12.70;62.28
66398;BME280;54877;51.504;3.894;2023-04-09T07:12:25;102526.59;;;12.72;62.33
66398;BME280;54877;51.504;3.894;2023-04-09T07:14:59;102520.25;;;12.76;62.59
66398;BME280;54877;51.504;3.894;2023-04-09T07:17:25;102513.91;;;12.80;62.25
66398;BME280;54877;51.504;3.894;2023-04-09T07:19:51;102510.28;;;12.83;62.24
66398;BME280;54877;51.504;3.894;2023-04-09T07:22:17;102515.44;;;12.87;62.44
66398;BME280;54877;51.504;3.894;2023-04-09T07:24:43;102518.81;;;12.92;62.32
66398;BME280;54877;51.504;3.894;2023-04-09T07:27:08;102520.56;;;12.93;61.76
66398;BME280;54877;51.504;3.894;2023-04-09T07:29:34;102517.97;;;12.92;62.06
66398;BME280;54877;51.504;3.894;2023-04-09T07:32:00;102518.72;;;12.95;61.99
66398;BME280;54877;51.504;3.894;2023-04-09T07:34:26;102518.09;;;12.87;61.49
66398;BME280;54877;51.504;3.894;2023-04-09T07:36:52;102517.38;;;12.82;61.61
66398;BME280;54877;51.504;3.894;2023-04-09T07:39:17;102519.16;;;12.83;61.69
66398;BME280;54877;51.504;3.894;2023-04-09T07:41:43;102509.38;;;12.84;61.89
66398;BME280;54877;51.504;3.894;2023-04-09T07:44:08;102524.50;;;12.82;61.19
66398;BME280;54877;51.504;3.894;2023-04-09T07:46:33;102525.44;;;12.81;61.30
66398;BME280;54877;51.504;3.894;2023-04-09T07:48:59;102521.72;;;12.85;60.97
66398;BME280;54877;51.504;3.894;2023-04-09T07:51:24;102519.03;;;12.86;61.52
66398;BME280;54877;51.504;3.894;2023-04-09T07:53:50;102533.81;;;12.95;61.47
66398;BME280;54877;51.504;3.894;2023-04-09T07:56:15;102523.75;;;13.05;61.47
66398;BME280;54877;51.504;3.894;2023-04-09T07:58:40;102520.84;;;13.12;61.29
66398;BME280;54877;51.504;3.894;2023-04-09T08:01:06;102519.69;;;13.21;61.44
66398;BME280;54877;51.504;3.894;2023-04-09T08:03:31;102519.38;;;13.30;61.05
66398;BME280;54877;51.504;3.894;2023-04-09T08:05:56;102513.75;;;13.39;60.84
66398;BME280;54877;51.504;3.894;2023-04-09T08:08:22;102516.13;;;13.46;60.52
66398;BME280;54877;51.504;3.894;2023-04-09T08:10:47;102521.03;;;13.59;60.40
66398;BME280;54877;51.504;3.894;2023-04-09T08:13:12;102520.06;;;13.61;59.91
66398;BME280;54877;51.504;3.894;2023-04-09T08:15:38;102525.09;;;13.69;59.60
66398;BME280;54877;51.504;3.894;2023-04-09T08:18:03;102531.31;;;13.68;59.45
66398;BME280;54877;51.504;3.894;2023-04-09T08:20:29;102521.34;;;13.74;59.50
66398;BME280;54877;51.504;3.894;2023-04-09T08:22:56;102525.63;;;13.78;59.29
66398;BME280;54877;51.504;3.894;2023-04-09T08:25:23;102523.78;;;13.80;59.26
66398;BME280;54877;51.504;3.894;2023-04-09T08:27:48;102525.50;;;13.81;58.97
66398;BME280;54877;51.504;3.894;2023-04-09T08:30:13;102526.19;;;13.86;58.75
66398;BME280;54877;51.504;3.894;2023-04-09T08:32:39;102527.06;;;13.87;58.88
66398;BME280;54877;51.504;3.894;2023-04-09T08:35:05;102523.50;;;13.88;59.00
66398;BME280;54877;51.504;3.894;2023-04-09T08:37:31;102530.56;;;13.89;58.93
66398;BME280;54877;51.504;3.894;2023-04-09T08:39:56;102527.63;;;13.96;59.18
66398;BME280;54877;51.504;3.894;2023-04-09T08:42:21;102527.41;;;14.02;58.51
66398;BME280;54877;51.504;3.894;2023-04-09T08:44:49;102522.06;;;14.02;58.74
66398;BME280;54877;51.504;3.894;2023-04-09T08:47:14;102524.63;;;14.05;58.52
66398;BME280;54877;51.504;3.894;2023-04-09T08:49:41;102524.78;;;14.01;58.58
66398;BME280;54877;51.504;3.894;2023-04-09T08:52:06;102526.41;;;14.05;58.57
66398;BME280;54877;51.504;3.894;2023-04-09T08:54:32;102530.06;;;14.02;58.00
66398;BME280;54877;51.504;3.894;2023-04-09T08:56:57;102528.25;;;14.03;58.42
66398;BME280;54877;51.504;3.894;2023-04-09T08:59:22;102515.91;;;14.00;58.16
66398;BME280;54877;51.504;3.894;2023-04-09T09:01:48;102516.19;;;13.93;58.69
66398;BME280;54877;51.504;3.894;2023-04-09T09:04:42;102516.38;;;13.88;58.27
66398;BME280;54877;51.504;3.894;2023-04-09T09:07:09;102512.16;;;13.83;57.99
66398;BME280;54877;51.504;3.894;2023-04-09T09:09:34;102517.31;;;13.87;58.28
66398;BME280;54877;51.504;3.894;2023-04-09T09:12:29;102521.63;;;13.90;58.62
66398;BME280;54877;51.504;3.894;2023-04-09T09:15:00;102527.84;;;13.90;58.38
66398;BME280;54877;51.504;3.894;2023-04-09T09:17:26;102521.72;;;13.88;57.89
66398;BME280;54877;51.504;3.894;2023-04-09T09:19:52;102518.19;;;13.88;58.32
66398;BME280;54877;51.504;3.894;2023-04-09T09:22:17;102516.59;;;13.82;58.24
66398;BME280;54877;51.504;3.894;2023-04-09T09:24:46;102517.78;;;13.75;58.92
66398;BME280;54877;51.504;3.894;2023-04-09T09:27:14;102521.00;;;13.83;59.17
66398;BME280;54877;51.504;3.894;2023-04-09T09:29:55;102526.66;;;13.97;59.17
66398;BME280;54877;51.504;3.894;2023-04-09T09:32:21;102519.03;;;14.11;58.94
66398;BME280;54877;51.504;3.894;2023-04-09T09:34:56;102515.16;;;14.20;58.06
66398;BME280;54877;51.504;3.894;2023-04-09T09:37:28;102509.69;;;14.25;58.10
66398;BME280;54877;51.504;3.894;2023-04-09T09:39:55;102508.97;;;14.20;58.44
66398;BME280;54877;51.504;3.894;2023-04-09T09:42:20;102503.63;;;14.20;58.50
66398;BME280;54877;51.504;3.894;2023-04-09T09:44:46;102497.41;;;14.21;58.24
66398;BME280;54877;51.504;3.894;2023-04-09T09:47:11;102496.34;;;14.25;58.58
66398;BME280;54877;51.504;3.894;2023-04-09T09:49:38;102495.59;;;14.21;58.22
66398;BME280;54877;51.504;3.894;2023-04-09T09:52:08;102491.16;;;14.22;58.39
66398;BME280;54877;51.504;3.894;2023-04-09T09:54:44;102491.38;;;14.16;58.92
66398;BME280;54877;51.504;3.894;2023-04-09T09:57:12;102488.09;;;14.31;58.89
66398;BME280;54877;51.504;3.894;2023-04-09T09:59:42;102481.66;;;14.38;58.41
66398;BME280;54877;51.504;3.894;2023-04-09T10:02:18;102489.69;;;14.36;57.83
66398;BME280;54877;51.504;3.894;2023-04-09T10:04:44;102490.44;;;14.40;58.06
66398;BME280;54877;51.504;3.894;2023-04-09T10:07:12;102491.38;;;14.39;57.91
66398;BME280;54877;51.504;3.894;2023-04-09T10:09:38;102489.41;;;14.44;57.57
66398;BME280;54877;51.504;3.894;2023-04-09T10:12:06;102487.66;;;14.43;57.45
66398;BME280;54877;51.504;3.894;2023-04-09T10:14:34;102475.25;;;14.42;57.33
66398;BME280;54877;51.504;3.894;2023-04-09T10:17:00;102472.59;;;14.42;57.64
66398;BME280;54877;51.504;3.894;2023-04-09T10:19:28;102477.81;;;14.45;57.49
66398;BME280;54877;51.504;3.894;2023-04-09T10:21:56;102466.22;;;14.46;57.55
66398;BME280;54877;51.504;3.894;2023-04-09T10:24:28;102470.00;;;14.62;57.46
66398;BME280;54877;51.504;3.894;2023-04-09T10:26:56;102457.34;;;14.67;57.36
66398;BME280;54877;51.504;3.894;2023-04-09T10:29:33;102464.06;;;14.77;57.17
66398;BME280;54877;51.504;3.894;2023-04-09T10:32:02;102455.94;;;14.80;57.00
66398;BME280;54877;51.504;3.894;2023-04-09T10:34:33;102451.28;;;14.85;56.82
66398;BME280;54877;51.504;3.894;2023-04-09T10:37:01;102460.50;;;14.98;56.86
66398;BME280;54877;51.504;3.894;2023-04-09T10:39:30;102459.41;;;15.02;56.43
66398;BME280;54877;51.504;3.894;2023-04-09T10:41:59;102458.38;;;15.06;56.43
66398;BME280;54877;51.504;3.894;2023-04-09T10:44:31;102453.56;;;15.14;56.54
66398;BME280;54877;51.504;3.894;2023-04-09T10:46:56;102448.59;;;15.27;56.56
66398;BME280;54877;51.504;3.894;2023-04-09T10:49:25;102445.69;;;15.32;55.94
66398;BME280;54877;51.504;3.894;2023-04-09T10:52:01;102444.22;;;15.45;55.95
66398;BME280;54877;51.504;3.894;2023-04-09T10:59:36;102431.78;;;15.84;55.07
66398;BME280;54877;51.504;3.894;2023-04-09T11:02:09;102427.53;;;15.99;54.92
66398;BME280;54877;51.504;3.894;2023-04-09T11:07:28;102425.91;;;16.32;54.14
66398;BME280;54877;51.504;3.894;2023-04-09T11:09:55;102420.19;;;16.39;53.54
66398;BME280;54877;51.504;3.894;2023-04-09T11:12:20;102422.41;;;16.49;53.50
66398;BME280;54877;51.504;3.894;2023-04-09T11:14:45;102411.91;;;16.63;53.63
66398;BME280;54877;51.504;3.894;2023-04-09T11:17:11;102409.56;;;16.74;53.68
66398;BME280;54877;51.504;3.894;2023-04-09T11:19:37;102414.28;;;16.69;52.94
66398;BME280;54877;51.504;3.894;2023-04-09T11:22:05;102400.44;;;16.61;52.82
66398;BME280;54877;51.504;3.894;2023-04-09T11:24:43;102402.97;;;16.64;53.10
66398;BME280;54877;51.504;3.894;2023-04-09T11:27:10;102404.41;;;16.52;52.94
66398;BME280;54877;51.504;3.894;2023-04-09T11:29:36;102399.03;;;16.54;52.89
66398;BME280;54877;51.504;3.894;2023-04-09T11:32:02;102405.78;;;16.61;52.98
66398;BME280;54877;51.504;3.894;2023-04-09T11:34:29;102404.06;;;16.60;53.26
66398;BME280;54877;51.504;3.894;2023-04-09T11:36:57;102403.28;;;16.75;53.18
66398;BME280;54877;51.504;3.894;2023-04-09T11:39:24;102397.63;;;16.81;52.06
66398;BME280;54877;51.504;3.894;2023-04-09T11:41:50;102396.97;;;16.93;52.17
66398;BME280;54877;51.504;3.894;2023-04-09T11:44:15;102391.47;;;17.13;51.46
66398;BME280;54877;51.504;3.894;2023-04-09T11:46:41;102393.00;;;17.34;51.32
66398;BME280;54877;51.504;3.894;2023-04-09T11:49:07;102395.50;;;17.54;50.93
66398;BME280;54877;51.504;3.894;2023-04-09T11:51:33;102393.44;;;17.59;50.31
66398;BME280;54877;51.504;3.894;2023-04-09T11:54:04;102394.88;;;17.67;50.25
66398;BME280;54877;51.504;3.894;2023-04-09T11:56:30;102392.28;;;17.81;50.06
66398;BME280;54877;51.504;3.894;2023-04-09T11:58:56;102388.34;;;17.55;49.13
66398;BME280;54877;51.504;3.894;2023-04-09T12:01:22;102394.53;;;17.73;49.40
66398;BME280;54877;51.504;3.894;2023-04-09T12:03:53;102392.19;;;17.98;49.54
66398;BME280;54877;51.504;3.894;2023-04-09T12:06:20;102391.78;;;18.21;49.17
66398;BME280;54877;51.504;3.894;2023-04-09T12:08:55;102388.81;;;18.41;48.98
66398;BME280;54877;51.504;3.894;2023-04-09T12:11:26;102392.03;;;18.63;48.63
66398;BME280;54877;51.504;3.894;2023-04-09T12:14:03;102392.78;;;18.65;48.42
66398;BME280;54877;51.504;3.894;2023-04-09T12:16:30;102387.16;;;19.00;47.62
66398;BME280;54877;51.504;3.894;2023-04-09T12:18:59;102385.44;;;19.13;46.87
66398;BME280;54877;51.504;3.894;2023-04-09T12:21:53;102388.69;;;19.18;47.09
66398;BME280;54877;51.504;3.894;2023-04-09T12:24:21;102391.69;;;19.27;47.31
66398;BME280;54877;51.504;3.894;2023-04-09T12:26:47;102393.31;;;19.16;46.73
66398;BME280;54877;51.504;3.894;2023-04-09T12:29:14;102389.94;;;19.12;47.02
66398;BME280;54877;51.504;3.894;2023-04-09T12:31:41;102391.97;;;19.23;47.41
66398;BME280;54877;51.504;3.894;2023-04-09T12:34:07;102393.34;;;19.30;46.31
66398;BME280;54877;51.504;3.894;2023-04-09T12:36:33;102394.28;;;19.29;46.49
66398;BME280;54877;51.504;3.894;2023-04-09T12:38:58;102394.38;;;19.27;47.00
66398;BME280;54877;51.504;3.894;2023-04-09T12:41:23;102392.53;;;19.28;46.48
66398;BME280;54877;51.504;3.894;2023-04-09T12:43:49;102390.88;;;19.41;47.07
66398;BME280;54877;51.504;3.894;2023-04-09T12:46:16;102379.50;;;19.36;46.50
66398;BME280;54877;51.504;3.894;2023-04-09T12:48:42;102376.44;;;19.28;47.06
66398;BME280;54877;51.504;3.894;2023-04-09T12:51:07;102372.03;;;19.27;46.94
66398;BME280;54877;51.504;3.894;2023-04-09T12:53:32;102372.97;;;19.26;47.32
66398;BME280;54877;51.504;3.894;2023-04-09T12:55:58;102365.13;;;19.37;46.74
66398;BME280;54877;51.504;3.894;2023-04-09T12:58:23;102363.03;;;19.42;47.04
66398;BME280;54877;51.504;3.894;2023-04-09T13:00:49;102362.84;;;19.45;46.78
66398;BME280;54877;51.504;3.894;2023-04-09T13:03:14;102364.22;;;19.52;46.31
66398;BME280;54877;51.504;3.894;2023-04-09T13:05:40;102363.41;;;19.50;45.77
66398;BME280;54877;51.504;3.894;2023-04-09T13:08:06;102363.97;;;19.27;47.04
66398;BME280;54877;51.504;3.894;2023-04-09T13:10:32;102364.56;;;19.32;46.39
66398;BME280;54877;51.504;3.894;2023-04-09T13:12:57;102373.59;;;19.45;46.52